Marianna, WV

11:17 AM EST on January 23, 2017 (GMT -0500)
Pineville

Weather History for KI16 - December, 2012

Change the Weather History Date:

Wednesday, December 19, 2012

  Actual Average (KBKW) Record (KBKW)
Temperature  
Mean Temperature 43 °F -  
Max Temperature 56 °F 42 °F 65 °F (1899)
Min Temperature 30 °F 26 °F -2 °F (1953)
Degree Days  
Heating Degree Days 22    
Moisture  
Dew Point 36 °F    
Average Humidity 91    
Maximum Humidity 100    
Minimum Humidity 52    
Precipitation  
Precipitation 0.00 in - - ()
Sea Level Pressure  
Sea Level Pressure 30.06 in    
Wind  
Wind Speed - (North)    
Max Wind Speed -    
Max Gust Speed -    
Visibility 10 miles    
Events      
Averages and records for this station are not official NWS values.
T = Trace of Precipitation, MM = Missing Value Source: NWS Daily Summary

Daily Weather History Graph

Daily Weather History Graph

Search for Another Location

Airport or City:

Trip Planner

Search our weather history database for the weather conditions in past years. The results will help you decide how hot, cold, wet, or windy it might be!

Date:

Astronomy

Dec. 19, 2012 Rise Set
Actual Time 7:36 AM EST 5:10 PM EST
Civil Twilight 7:07 AM EST 5:39 PM EST
Nautical Twilight 6:34 AM EST 6:12 PM EST
Astronomical Twilight 6:02 AM EST 6:44 PM EST
Moon 11:52 AM EST (12/19) No Moon Set
Length of Visible Light 10h 32m
Length of Day
9h 33m
Waxing Crescent, 45% of the Moon is Illuminated
Dec 19
Waxing Crescent
Dec 20
First Quarter
Dec 28
Full
Jan 4
Last Quarter
Jan 11
New

Hourly Weather History & Observations

Time (EST) Temp. Dew Point Humidity Pressure Visibility Wind Dir Wind Speed Gust Speed Precip Events Conditions
12:15 AM 31.8 °F 31.8 °F 100% 29.92 in 7.0 mi North - - N/A   Clear
12:35 AM 31.6 °F 31.6 °F 100% 29.92 in 7.0 mi North - - N/A   Clear
12:55 AM 31.8 °F 31.8 °F 100% 29.93 in 7.0 mi North - - N/A   Clear
1:15 AM 31.6 °F 31.6 °F 100% 29.94 in 7.0 mi North - - N/A   Clear
1:35 AM 31.1 °F 31.1 °F 100% 29.94 in 7.0 mi North - - N/A   Clear
1:55 AM 31.1 °F 31.1 °F 100% 29.94 in 10.0 mi North - - N/A   Clear
2:15 AM 31.1 °F 31.1 °F 100% 29.95 in 10.0 mi North - - N/A   Clear
2:35 AM 30.9 °F 30.9 °F 100% 29.96 in 10.0 mi North - - N/A   Clear
2:55 AM 30.6 °F 30.6 °F 100% 29.96 in 10.0 mi North - - N/A   Clear
3:15 AM 30.4 °F 30.4 °F 100% 29.97 in 10.0 mi North - - N/A   Clear
3:35 AM 30.4 °F 30.4 °F 100% 29.98 in 10.0 mi North - - N/A   Clear
3:55 AM 30.2 °F 30.2 °F 100% 29.98 in 10.0 mi North - - N/A   Clear
4:15 AM 30.4 °F 30.4 °F 100% 29.98 in 10.0 mi North - - N/A   Clear
4:35 AM 30.2 °F 30.2 °F 100% 29.99 in 10.0 mi North - - N/A   Clear
4:55 AM 30.0 °F 30.0 °F 100% 29.99 in 10.0 mi North - - N/A   Mostly Cloudy
5:15 AM 31.6 °F 31.6 °F 100% 30.00 in 10.0 mi North - - N/A   Overcast
5:35 AM 32.0 °F 32.0 °F 100% 30.01 in 10.0 mi North - - N/A   Overcast
5:55 AM 32.0 °F 32.0 °F 100% 30.01 in 10.0 mi North - - N/A   Mostly Cloudy
6:15 AM 32.0 °F 32.0 °F 100% 30.02 in 10.0 mi North - - N/A   Scattered Clouds
6:35 AM 31.3 °F 31.3 °F 100% 30.02 in 10.0 mi North - - N/A   Scattered Clouds
6:55 AM 30.9 °F 30.9 °F 100% 30.03 in 10.0 mi North - - N/A   Clear
7:15 AM 30.4 °F 30.4 °F 100% 30.04 in 10.0 mi North - - N/A   Clear
7:35 AM 30.6 °F 30.6 °F 100% 30.04 in 10.0 mi North - - N/A   Clear
7:55 AM 30.4 °F 30.4 °F 100% 30.05 in 10.0 mi North - - N/A   Clear
8:15 AM 30.2 °F 30.2 °F 100% 30.06 in 10.0 mi North - - N/A   Clear
8:35 AM 30.7 °F 30.7 °F 100% 30.08 in 10.0 mi North - - N/A   Clear
8:55 AM 32.2 °F 32.2 °F 100% 30.08 in 10.0 mi North - - N/A   Clear
9:15 AM 33.8 °F 33.8 °F 100% 30.08 in 7.0 mi North - - N/A   Clear
9:35 AM 35.2 °F 35.2 °F 100% 30.09 in 5.0 mi North - - N/A   Clear
9:55 AM 37.4 °F 37.4 °F 100% 30.10 in 3.0 mi North - - N/A   Clear
10:15 AM 39.4 °F 39.4 °F 100% 30.10 in 5.0 mi North - - N/A   Clear
10:35 AM 40.8 °F 40.8 °F 100% 30.10 in 10.0 mi North - - N/A   Clear
10:55 AM 44.1 °F 43.5 °F 98% 30.10 in 10.0 mi North - - N/A   Clear
11:15 AM 47.7 °F 43.3 °F 85% 30.10 in 10.0 mi North - - N/A   Clear
11:35 AM 51.1 °F 42.3 °F 72% 30.10 in 10.0 mi North - - N/A   Clear
11:55 AM 52.0 °F 42.1 °F 69% 30.09 in 10.0 mi North - - N/A   Clear
12:15 PM 52.3 °F 41.9 °F 68% 30.08 in 10.0 mi North - - N/A   Clear
12:35 PM 53.1 °F 41.2 °F 64% 30.08 in 10.0 mi North - - N/A   Clear
12:55 PM 53.8 °F 41.4 °F 63% 30.07 in 10.0 mi North - - N/A   Clear
1:15 PM 54.9 °F 40.5 °F 58% 30.08 in 10.0 mi North - - N/A   Clear
1:35 PM 55.4 °F 40.5 °F 57% 30.07 in 10.0 mi North - - N/A   Clear
1:55 PM 55.8 °F 40.1 °F 56% 30.07 in 10.0 mi North - - N/A   Clear
2:15 PM 56.7 °F 41.4 °F 57% 30.08 in 10.0 mi North - - N/A   Clear
2:35 PM 56.7 °F 39.7 °F 53% 30.08 in 10.0 mi North - - N/A   Clear
2:55 PM 56.1 °F 38.8 °F 52% 30.08 in 10.0 mi North - - N/A   Clear
3:15 PM 56.5 °F 39.0 °F 52% 30.08 in 10.0 mi North - - N/A   Clear
3:35 PM 55.0 °F 39.6 °F 56% 30.09 in 10.0 mi North - - N/A   Clear
3:55 PM 48.9 °F 40.8 °F 74% 30.09 in 10.0 mi North - - N/A   Clear
4:15 PM 47.3 °F 40.8 °F 78% 30.09 in 10.0 mi North - - N/A   Clear
4:35 PM 45.3 °F 41.0 °F 85% 30.10 in 10.0 mi North - - N/A   Clear
4:55 PM 43.9 °F 40.8 °F 89% 30.10 in 10.0 mi North - - N/A   Clear
5:15 PM 42.3 °F 40.1 °F 92% 30.10 in 10.0 mi North - - N/A   Clear
5:35 PM 41.4 °F 39.4 °F 93% 30.11 in 10.0 mi North - - N/A   Clear
5:55 PM 40.5 °F 39.2 °F 95% 30.12 in 10.0 mi North - - N/A   Clear
6:15 PM 39.6 °F 38.3 °F 95% 30.12 in 10.0 mi North - - N/A   Clear
6:35 PM 38.7 °F 37.8 °F 97% 30.13 in 10.0 mi North - - N/A   Clear
6:55 PM 38.1 °F 37.4 °F 97% 30.13 in 10.0 mi North - - N/A   Clear
7:15 PM 37.6 °F 37.0 °F 98% 30.13 in 10.0 mi North - - N/A   Clear
7:35 PM 37.6 °F 37.4 °F 99% 30.13 in 10.0 mi North - - N/A   Clear
7:55 PM 37.8 °F 37.6 °F 99% 30.13 in 10.0 mi North - - N/A   Clear
8:15 PM 38.3 °F 38.1 °F 99% 30.13 in 10.0 mi North - - N/A   Clear
8:35 PM 38.1 °F 37.8 °F 99% 30.14 in 10.0 mi North - - N/A   Clear
8:55 PM 37.4 °F 37.4 °F 100% 30.14 in 10.0 mi North - - N/A   Clear
9:15 PM 37.4 °F 37.4 °F 100% 30.13 in 10.0 mi North - - N/A   Clear
9:35 PM 37.6 °F 37.6 °F 100% 30.14 in 10.0 mi North - - N/A   Clear
9:55 PM 37.6 °F 37.6 °F 100% 30.14 in 10.0 mi North - - N/A   Clear
10:15 PM 37.4 °F 37.4 °F 100% 30.14 in 10.0 mi North - - N/A   Clear
10:35 PM 37.2 °F 37.2 °F 100% 30.14 in 10.0 mi North - - N/A   Clear
10:55 PM 37.0 °F 37.0 °F 100% 30.13 in 10.0 mi North - - N/A   Clear
11:15 PM 37.0 °F 37.0 °F 100% 30.12 in 10.0 mi North - - N/A   Clear
11:35 PM 36.7 °F 36.7 °F 100% 30.12 in 10.0 mi North - - N/A   Clear
11:55 PM 36.5 °F 36.5 °F 100% 30.12 in 10.0 mi North - - N/A   Clear